createdAt,value
2018-07-11T00:02:09.993Z,23.10
2018-07-11T00:04:39.164Z,23.10
2018-07-11T00:07:09.004Z,23.13
2018-07-11T00:09:38.140Z,23.73
2018-07-11T00:12:07.347Z,23.93
2018-07-11T00:14:36.438Z,21.70
2018-07-11T00:17:10.641Z,23.93
2018-07-11T00:19:39.777Z,22.07
2018-07-11T00:22:08.928Z,21.77
2018-07-11T00:24:38.147Z,21.40
2018-07-11T00:27:07.600Z,23.03
2018-07-11T00:29:36.844Z,20.63
2018-07-11T00:32:05.962Z,20.97
2018-07-11T00:34:35.066Z,18.70
2018-07-11T00:37:04.237Z,19.50
2018-07-11T00:39:33.692Z,19.80
2018-07-11T00:42:02.785Z,21.00
2018-07-11T00:44:31.921Z,19.67
2018-07-11T00:47:01.114Z,19.70
2018-07-11T00:49:30.234Z,19.57
2018-07-11T00:51:59.317Z,20.80
2018-07-11T00:54:28.478Z,19.63
2018-07-11T00:56:57.553Z,19.47
2018-07-11T00:59:28.242Z,18.37
2018-07-11T01:02:04.289Z,18.40
2018-07-11T01:04:33.607Z,18.47
2018-07-11T01:07:04.387Z,18.27
2018-07-11T01:09:42.589Z,19.73
2018-07-11T01:12:11.686Z,17.97
2018-07-11T01:14:40.796Z,17.90
2018-07-11T01:17:15.066Z,19.03
2018-07-11T01:19:44.210Z,20.27
2018-07-11T01:22:13.350Z,18.77
2018-07-11T01:24:42.457Z,19.90
2018-07-11T01:27:11.652Z,19.90
2018-07-11T01:29:40.733Z,19.03
2018-07-11T01:32:09.921Z,19.70
2018-07-11T01:34:39.016Z,19.70
2018-07-11T01:37:08.129Z,20.70
2018-07-11T01:39:37.273Z,18.57
2018-07-11T01:42:06.398Z,18.60
2018-07-11T01:44:35.577Z,18.70
2018-07-11T01:47:04.710Z,21.33
2018-07-11T01:49:34.901Z,19.97
2018-07-11T01:52:15.240Z,20.10
2018-07-11T01:54:44.348Z,19.00
2018-07-11T01:57:13.460Z,18.30
2018-07-11T01:59:42.574Z,18.73
2018-07-11T02:02:11.794Z,19.80
2018-07-11T02:04:41.942Z,17.87
2018-07-11T02:07:11.968Z,19.57
2018-07-11T02:09:41.404Z,19.37
2018-07-11T02:12:10.592Z,18.73
2018-07-11T02:14:39.860Z,20.53
2018-07-11T02:17:09.006Z,19.03
2018-07-11T02:19:38.208Z,20.03
2018-07-11T02:22:07.312Z,20.00
2018-07-11T02:24:36.542Z,21.10
2018-07-11T02:27:05.736Z,20.00
2018-07-11T02:29:34.872Z,18.57
2018-07-11T02:32:04.063Z,19.97
2018-07-11T02:34:34.716Z,18.80
2018-07-11T02:37:04.690Z,19.33
2018-07-11T02:39:34.349Z,19.70
2018-07-11T02:42:03.509Z,18.70
2018-07-11T02:44:32.608Z,17.93
2018-07-11T02:47:07.037Z,18.97
2018-07-11T02:49:36.369Z,19.00
2018-07-11T02:52:05.467Z,19.77
2018-07-11T02:54:34.576Z,20.57
2018-07-11T02:57:03.764Z,20.43
2018-07-11T02:59:32.885Z,20.80
2018-07-11T03:02:02.010Z,19.90
2018-07-11T03:04:31.218Z,19.93
2018-07-11T03:07:00.323Z,19.70
2018-07-11T03:09:29.641Z,19.67
2018-07-11T03:11:58.756Z,18.87
2018-07-11T03:14:27.939Z,18.93
2018-07-11T03:16:57.114Z,19.13
2018-07-11T03:19:26.218Z,19.40
2018-07-11T03:21:55.314Z,20.30
2018-07-11T03:24:24.514Z,19.17
2018-07-11T03:26:54.133Z,20.50
2018-07-11T03:29:23.243Z,21.40
2018-07-11T03:31:52.351Z,18.70
2018-07-11T03:34:21.541Z,20.63
2018-07-11T03:36:50.722Z,18.80
2018-07-11T03:39:19.821Z,18.27
2018-07-11T03:41:48.947Z,19.40
2018-07-11T03:44:18.061Z,19.10
2018-07-11T03:46:47.209Z,19.43
2018-07-11T03:49:16.409Z,20.23
2018-07-11T03:51:45.522Z,18.40
2018-07-11T03:54:14.629Z,19.67
2018-07-11T03:56:43.763Z,21.50
2018-07-11T03:59:12.839Z,18.83
2018-07-11T04:01:42.030Z,18.37
2018-07-11T04:04:11.129Z,19.60
2018-07-11T04:06:40.253Z,19.13
2018-07-11T04:09:09.345Z,19.67
2018-07-11T04:11:38.445Z,18.50
2018-07-11T04:14:07.636Z,20.13
2018-07-11T04:16:36.952Z,19.37
2018-07-11T04:19:06.057Z,19.27
2018-07-11T04:21:35.144Z,19.60
2018-07-11T04:24:04.264Z,18.20
2018-07-11T04:26:33.430Z,17.03
2018-07-11T04:29:02.501Z,19.27
2018-07-11T04:31:31.930Z,18.50
2018-07-11T04:34:01.164Z,16.97
2018-07-11T04:36:30.265Z,18.53
2018-07-11T04:38:59.392Z,16.37
2018-07-11T04:41:28.538Z,16.60
2018-07-11T04:43:57.726Z,16.10
2018-07-11T04:46:26.822Z,15.00
2018-07-11T04:48:55.960Z,14.50
2018-07-11T04:51:25.064Z,14.80
2018-07-11T04:53:54.749Z,13.43
2018-07-11T04:56:24.261Z,13.63
2018-07-11T04:58:53.424Z,11.63
2018-07-11T05:01:22.654Z,12.60
2018-07-11T05:03:51.888Z,10.20
2018-07-11T05:06:20.970Z,12.27
2018-07-11T05:08:50.090Z,10.40
2018-07-11T05:11:19.273Z,10.70
2018-07-11T05:13:48.446Z,10.37
2018-07-11T05:16:17.828Z,9.97
2018-07-11T05:18:46.894Z,10.37
2018-07-11T05:21:16.072Z,10.37
2018-07-11T05:23:45.236Z,9.87
2018-07-11T05:26:14.361Z,9.47
2018-07-11T05:28:43.477Z,8.67
2018-07-11T05:31:12.577Z,7.93
2018-07-11T05:33:41.725Z,8.50
2018-07-11T05:36:10.847Z,7.80
2018-07-11T05:38:40.133Z,8.90
2018-07-11T05:41:09.264Z,8.10
2018-07-11T05:43:38.446Z,7.37
2018-07-11T05:46:07.765Z,8.23
2018-07-11T05:48:36.907Z,8.10
2018-07-11T05:51:06.093Z,7.70
2018-07-11T05:53:35.292Z,7.77
2018-07-11T05:56:04.403Z,6.30
2018-07-11T05:58:33.629Z,6.43
2018-07-11T06:01:02.777Z,6.33
2018-07-11T06:03:31.888Z,7.33
2018-07-11T06:06:00.988Z,6.53
2018-07-11T06:08:30.059Z,6.30
2018-07-11T06:10:59.240Z,5.70
2018-07-11T06:13:28.442Z,5.20
2018-07-11T06:15:57.636Z,6.47
2018-07-11T06:18:26.732Z,5.50
2018-07-11T06:20:55.878Z,5.90
2018-07-11T06:23:24.977Z,6.30
2018-07-11T06:25:54.174Z,5.93
2018-07-11T06:28:23.325Z,6.83
2018-07-11T06:30:52.458Z,6.10
2018-07-11T06:33:21.597Z,5.60
2018-07-11T06:35:50.686Z,5.90
2018-07-11T06:38:19.809Z,5.40
2018-07-11T06:40:49.261Z,5.57
2018-07-11T06:43:18.381Z,6.20
2018-07-11T06:45:47.501Z,6.97
2018-07-11T06:48:16.672Z,6.50
2018-07-11T06:50:45.818Z,5.13
2018-07-11T06:53:15.008Z,5.50
2018-07-11T06:55:44.189Z,5.30
2018-07-11T06:58:13.293Z,6.57
2018-07-11T07:00:42.469Z,5.33
2018-07-11T07:03:11.548Z,5.07
2018-07-11T07:05:40.665Z,6.10
2018-07-11T07:08:09.784Z,5.40
2018-07-11T07:10:38.856Z,6.33
2018-07-11T07:13:07.963Z,6.17
2018-07-11T07:15:37.115Z,5.60
2018-07-11T07:18:06.185Z,5.10
2018-07-11T07:20:35.305Z,6.13
2018-07-11T07:23:04.463Z,6.13
2018-07-11T07:25:33.525Z,6.50
2018-07-11T07:28:02.619Z,5.77
2018-07-11T07:30:31.720Z,7.30
2018-07-11T07:33:00.787Z,8.20
2018-07-11T07:35:29.995Z,6.57
2018-07-11T07:37:59.381Z,6.83
2018-07-11T07:40:28.504Z,6.77
2018-07-11T07:42:57.608Z,7.43
2018-07-11T07:45:26.771Z,6.37
2018-07-11T07:47:55.897Z,7.00
2018-07-11T07:50:25.029Z,6.50
2018-07-11T07:52:54.177Z,5.77
2018-07-11T07:55:23.241Z,6.53
2018-07-11T07:57:52.342Z,6.47
2018-07-11T08:00:21.510Z,5.90
2018-07-11T08:02:50.530Z,7.03
2018-07-11T08:05:19.593Z,6.50
2018-07-11T08:07:48.657Z,6.80
2018-07-11T08:10:17.731Z,6.23
2018-07-11T08:12:46.797Z,4.90
2018-07-11T08:15:15.865Z,5.83
2018-07-11T08:17:44.949Z,5.73
2018-07-11T08:20:14.039Z,5.50
2018-07-11T08:23:22.205Z,7.63
2018-07-11T08:26:03.492Z,4.60
2018-07-11T08:29:55.909Z,4.20
2018-07-11T08:32:41.549Z,5.30
2018-07-11T08:36:39.834Z,7.10
2018-07-11T08:41:23.993Z,7.50
2018-07-11T08:44:06.986Z,6.40
2018-07-11T08:46:45.816Z,5.40
2018-07-11T08:49:39.594Z,6.30
2018-07-11T08:55:24.721Z,6.07
2018-07-11T09:00:07.885Z,7.10
2018-07-11T09:02:53.014Z,4.97
2018-07-11T09:06:34.306Z,3.67
2018-07-11T09:09:21.409Z,3.67
2018-07-11T09:13:05.325Z,3.20
2018-07-11T09:15:45.941Z,4.50
2018-07-11T09:19:01.090Z,4.70
2018-07-11T09:21:53.161Z,3.13
2018-07-11T09:24:44.383Z,3.30
2018-07-11T09:27:13.732Z,2.60
2018-07-11T09:29:43.757Z,3.40
2018-07-11T09:32:13.492Z,4.17
2018-07-11T09:34:43.233Z,4.10
2018-07-11T09:37:12.324Z,4.10
2018-07-11T09:39:42.024Z,4.07
2018-07-11T09:42:11.124Z,4.13
2018-07-11T09:44:40.238Z,3.13
2018-07-11T09:47:14.746Z,3.63
2018-07-11T09:49:44.125Z,4.53
2018-07-11T09:52:13.480Z,3.73
2018-07-11T09:54:42.571Z,3.30
2018-07-11T09:57:12.091Z,4.03
2018-07-11T09:59:41.182Z,3.77
2018-07-11T10:02:10.777Z,4.20
2018-07-11T10:04:39.907Z,3.23
2018-07-11T10:07:09.029Z,4.03
2018-07-11T10:09:38.178Z,3.33
2018-07-11T10:12:07.278Z,4.57
2018-07-11T10:14:36.365Z,5.20
2018-07-11T10:17:05.538Z,5.00
2018-07-11T10:19:34.621Z,5.63
2018-07-11T10:22:03.715Z,4.90
2018-07-11T10:24:32.872Z,5.87
2018-07-11T10:27:02.033Z,4.93
2018-07-11T10:29:31.102Z,5.43
2018-07-11T10:32:00.220Z,4.20
2018-07-11T10:34:29.288Z,5.37
2018-07-11T10:36:58.368Z,5.30
2018-07-11T10:39:27.444Z,4.50
2018-07-11T10:41:56.592Z,4.90
2018-07-11T10:44:25.734Z,5.33
2018-07-11T10:47:00.189Z,4.50
2018-07-11T10:49:29.304Z,4.40
2018-07-11T10:51:58.549Z,4.23
2018-07-11T10:54:27.620Z,3.77
2018-07-11T10:56:56.711Z,3.30
2018-07-11T10:59:25.797Z,3.80
2018-07-11T11:01:54.912Z,3.63
2018-07-11T11:04:24.083Z,5.70
2018-07-11T11:06:53.306Z,6.63
2018-07-11T11:09:22.875Z,6.53
2018-07-11T11:11:51.970Z,7.67
2018-07-11T11:14:21.080Z,7.03
2018-07-11T11:16:50.208Z,8.13
2018-07-11T11:19:19.293Z,7.87
2018-07-11T11:21:48.385Z,7.43
2018-07-11T11:24:17.482Z,8.67
2018-07-11T11:26:46.574Z,10.33
2018-07-11T11:29:15.816Z,8.27
2018-07-11T11:31:44.934Z,7.90
2018-07-11T11:34:14.300Z,8.40
2018-07-11T11:36:43.379Z,7.70
2018-07-11T11:39:12.613Z,8.37
2018-07-11T11:41:41.797Z,7.60
2018-07-11T11:44:10.953Z,7.50
2018-07-11T11:46:40.086Z,9.03
2018-07-11T11:49:09.217Z,7.57
2018-07-11T11:51:38.401Z,7.43
2018-07-11T11:54:07.500Z,7.40
2018-07-11T11:56:36.581Z,8.20
2018-07-11T11:59:05.803Z,9.10
2018-07-11T12:01:34.937Z,7.90
2018-07-11T12:04:04.099Z,7.00
2018-07-11T12:06:33.165Z,7.10
2018-07-11T12:09:02.269Z,6.60
2018-07-11T12:11:31.437Z,7.07
2018-07-11T12:14:00.471Z,7.13
2018-07-11T12:16:29.620Z,7.33
2018-07-11T12:18:58.720Z,6.70
2018-07-11T12:21:27.909Z,6.13
2018-07-11T12:23:56.987Z,7.00
2018-07-11T12:26:26.491Z,6.30
2018-07-11T12:28:55.540Z,7.70
2018-07-11T12:31:24.684Z,6.87
2018-07-11T12:33:53.780Z,6.13
2018-07-11T12:36:22.898Z,7.20
2018-07-11T12:38:54.198Z,7.60
2018-07-11T12:41:23.530Z,7.20
2018-07-11T12:43:52.602Z,7.40
2018-07-11T12:46:21.713Z,8.80
2018-07-11T12:48:56.138Z,7.90
2018-07-11T12:51:25.358Z,6.10
2018-07-11T12:53:54.542Z,8.57
2018-07-11T12:56:23.656Z,7.63
2018-07-11T12:58:52.764Z,8.00
2018-07-11T13:01:22.153Z,9.13
2018-07-11T13:03:53.836Z,8.70
2018-07-11T13:06:24.129Z,8.83
2018-07-11T13:08:53.561Z,9.57
2018-07-11T13:11:22.672Z,8.10
2018-07-11T13:13:52.249Z,9.13
2018-07-11T13:16:21.377Z,7.60
2018-07-11T13:18:50.448Z,7.40
2018-07-11T13:21:19.541Z,6.90
2018-07-11T13:23:48.633Z,7.57
2018-07-11T13:26:17.785Z,8.73
2018-07-11T13:28:46.859Z,7.63
2018-07-11T13:31:15.940Z,7.83
2018-07-11T13:33:45.142Z,6.20
2018-07-11T13:36:14.204Z,6.60
2018-07-11T13:38:43.283Z,5.70
2018-07-11T13:41:12.426Z,6.63
2018-07-11T13:43:41.500Z,6.47
2018-07-11T13:46:10.578Z,7.10
2018-07-11T13:51:19.501Z,5.43
2018-07-11T13:53:48.554Z,5.80
2018-07-11T13:56:17.617Z,5.50
2018-07-11T13:58:46.694Z,6.10
2018-07-11T14:01:15.841Z,5.80
2018-07-11T14:03:44.905Z,5.27
2018-07-11T14:06:14.099Z,5.23
2018-07-11T14:08:43.333Z,4.83
2018-07-11T14:11:12.465Z,4.90
2018-07-11T14:13:41.559Z,4.80
2018-07-11T14:16:11.643Z,5.60
2018-07-11T14:18:40.801Z,6.13
2018-07-11T14:21:09.943Z,5.90
2018-07-11T14:23:40.425Z,5.60
2018-07-11T14:26:10.635Z,6.40
2018-07-11T14:28:46.272Z,6.30
2018-07-11T14:31:20.757Z,5.67
2018-07-11T14:33:49.895Z,6.60
2018-07-11T14:36:19.013Z,6.47
2018-07-11T14:38:48.107Z,7.90
2018-07-11T14:41:17.233Z,7.60
2018-07-11T14:43:46.654Z,9.57
2018-07-11T14:46:16.117Z,8.30
2018-07-11T14:48:45.308Z,8.83
2018-07-11T14:51:14.482Z,9.70
2018-07-11T14:53:43.569Z,8.17
2018-07-11T14:56:12.896Z,8.97
2018-07-11T14:58:41.988Z,8.50
2018-07-11T15:01:11.058Z,9.30
2018-07-11T15:03:40.153Z,8.53
2018-07-11T15:06:09.295Z,8.97
2018-07-11T15:08:38.579Z,8.80
2018-07-11T15:11:07.625Z,8.60
2018-07-11T15:13:36.771Z,8.80
2018-07-11T15:16:06.537Z,9.80
2018-07-11T15:18:35.678Z,8.60
2018-07-11T15:21:05.225Z,8.60
2018-07-11T15:23:34.521Z,7.93
2018-07-11T15:26:03.688Z,8.20
2018-07-11T15:28:32.783Z,8.83
2018-07-11T15:31:01.912Z,9.30
2018-07-11T15:33:31.033Z,8.53
2018-07-11T15:36:00.253Z,8.60
2018-07-11T15:38:29.531Z,8.50
2018-07-11T15:41:00.313Z,8.70
2018-07-11T15:43:30.101Z,9.77
2018-07-11T15:45:59.717Z,8.80
2018-07-11T15:48:29.289Z,8.47
2018-07-11T15:50:58.402Z,8.40
2018-07-11T15:53:28.748Z,8.47
2018-07-11T15:55:59.930Z,8.03
2018-07-11T15:58:31.213Z,8.40
2018-07-11T16:01:04.924Z,8.80
2018-07-11T16:03:37.695Z,8.23
2018-07-11T16:06:08.627Z,7.33
2018-07-11T16:08:37.791Z,7.43
2018-07-11T16:11:06.905Z,7.90
2018-07-11T16:13:36.059Z,7.70
2018-07-11T16:16:05.135Z,7.40
2018-07-11T16:18:34.436Z,6.70
2018-07-11T16:21:03.608Z,7.87
2018-07-11T16:23:32.769Z,7.70
2018-07-11T16:26:02.149Z,7.93
2018-07-11T16:28:31.275Z,8.87
2018-07-11T16:31:00.373Z,7.57
2018-07-11T16:33:29.491Z,7.90
2018-07-11T16:35:58.665Z,8.13
2018-07-11T16:38:27.779Z,7.60
2018-07-11T16:40:57.373Z,7.80
2018-07-11T16:43:27.845Z,7.43
2018-07-11T16:45:56.945Z,8.93
2018-07-11T16:48:26.029Z,8.60
2018-07-11T16:50:55.260Z,9.67
2018-07-11T16:53:24.340Z,8.97
2018-07-11T16:55:53.484Z,9.13
2018-07-11T16:58:25.913Z,9.83
2018-07-11T17:00:55.078Z,10.73
2018-07-11T17:03:26.100Z,9.90
2018-07-11T17:06:00.868Z,8.93
2018-07-11T17:08:32.428Z,9.37
2018-07-11T17:11:20.387Z,9.60
2018-07-11T17:14:02.253Z,10.83
2018-07-11T17:16:46.833Z,8.50
2018-07-11T17:19:22.513Z,9.50
2018-07-11T17:21:51.671Z,8.73
2018-07-11T17:24:21.992Z,8.30
2018-07-11T17:26:54.650Z,8.07
2018-07-11T17:29:27.260Z,7.80
2018-07-11T17:32:05.149Z,7.77
2018-07-11T17:34:34.829Z,8.07
2018-07-11T17:37:05.190Z,7.77
2018-07-11T17:39:50.854Z,7.77
2018-07-11T17:42:23.145Z,7.37
2018-07-11T17:45:04.270Z,11.20
2018-07-11T17:48:38.579Z,7.97
2018-07-11T17:51:14.585Z,7.13
2018-07-11T17:53:48.769Z,6.93
2018-07-11T17:56:21.950Z,6.80
2018-07-11T17:58:54.279Z,6.50
2018-07-11T18:01:35.510Z,6.30
2018-07-11T18:04:17.511Z,6.00
2018-07-11T18:07:06.888Z,6.70
2018-07-11T18:09:46.228Z,6.20
2018-07-11T18:12:25.202Z,6.50
2018-07-11T18:17:07.229Z,6.33
2018-07-11T18:21:54.601Z,6.20
2018-07-11T18:24:36.125Z,6.50
2018-07-11T18:27:08.201Z,6.17
2018-07-11T18:30:20.891Z,46.50
2018-07-11T18:33:00.940Z,16.50
2018-07-11T18:35:40.845Z,9.03
2018-07-11T18:38:30.099Z,10.57
2018-07-11T18:41:28.164Z,8.53
2018-07-11T18:46:14.496Z,7.37
2018-07-11T18:48:52.458Z,6.90
2018-07-11T18:51:35.450Z,6.50
2018-07-11T18:54:10.613Z,6.80
2018-07-11T18:57:07.512Z,6.77
2018-07-11T18:59:58.925Z,7.90
2018-07-11T19:03:40.855Z,14.87
2018-07-11T19:06:35.023Z,23.60
2018-07-11T19:09:11.144Z,14.13
2018-07-11T19:11:57.398Z,8.30
2018-07-11T19:14:42.298Z,9.23
2018-07-11T19:18:36.642Z,8.27
2018-07-11T19:21:10.925Z,7.60
2018-07-11T19:23:52.033Z,6.53
2018-07-11T19:26:32.476Z,7.87
2018-07-11T19:29:10.218Z,6.93
2018-07-11T19:31:59.912Z,8.90
2018-07-11T19:34:40.142Z,7.87
2018-07-11T19:38:17.884Z,7.30
2018-07-11T19:40:51.717Z,5.77
2018-07-11T19:43:30.746Z,6.47
2018-07-11T19:46:07.100Z,6.70
2018-07-11T19:48:58.944Z,4.93
2018-07-11T19:51:35.323Z,5.60
2018-07-11T19:56:12.256Z,5.73
2018-07-11T19:58:41.414Z,6.53
2018-07-11T20:01:10.485Z,5.90
2018-07-11T20:03:39.529Z,6.33
2018-07-11T20:06:08.614Z,4.80
2018-07-11T20:08:37.883Z,5.30
2018-07-11T20:11:07.066Z,6.27
2018-07-11T20:13:36.181Z,5.93
2018-07-11T20:16:05.314Z,5.13
2018-07-11T20:18:34.366Z,5.30
2018-07-11T20:21:03.441Z,4.70
2018-07-11T20:23:32.591Z,19.03
2018-07-11T20:26:01.725Z,11.50
2018-07-11T20:28:30.805Z,7.20
2018-07-11T20:30:59.881Z,6.50
2018-07-11T20:33:28.975Z,45.23
2018-07-11T20:35:58.139Z,6.83
2018-07-11T20:38:27.300Z,10.20
2018-07-11T20:40:56.421Z,6.00
2018-07-11T20:43:25.494Z,5.90
2018-07-11T20:45:54.556Z,5.90
2018-07-11T20:48:23.648Z,5.87
2018-07-11T20:50:52.740Z,6.10
2018-07-11T20:53:21.838Z,6.17
2018-07-11T20:55:50.900Z,5.97
2018-07-11T20:58:31.475Z,6.20
2018-07-11T21:01:11.906Z,5.77
2018-07-11T21:04:56.424Z,5.90
2018-07-11T21:07:37.541Z,6.30
2018-07-11T21:10:21.880Z,6.33
2018-07-11T21:15:34.759Z,6.30
2018-07-11T21:18:20.184Z,5.03
2018-07-11T21:20:49.269Z,5.50
2018-07-11T21:23:18.351Z,5.57
2018-07-11T21:25:47.416Z,6.03
2018-07-11T21:28:16.505Z,6.10
2018-07-11T21:30:45.617Z,6.20
2018-07-11T21:33:14.716Z,7.03
2018-07-11T21:35:43.786Z,6.60
2018-07-11T21:38:12.857Z,6.63
2018-07-11T21:40:41.994Z,6.03
2018-07-11T21:43:11.038Z,6.40
2018-07-11T21:45:40.080Z,6.60
2018-07-11T21:48:09.152Z,7.20
2018-07-11T21:50:38.248Z,7.73
2018-07-11T21:53:07.325Z,7.23
2018-07-11T21:55:36.401Z,7.60
2018-07-11T21:58:06.110Z,7.00
2018-07-11T22:00:40.170Z,7.10
2018-07-11T22:03:10.244Z,6.50
2018-07-11T22:05:39.486Z,6.90
2018-07-11T22:08:09.360Z,7.03
2018-07-11T22:10:39.480Z,7.73
2018-07-11T22:13:09.274Z,7.20
2018-07-11T22:15:38.320Z,6.57
2018-07-11T22:18:18.868Z,7.30
2018-07-11T22:20:46.861Z,6.53
2018-07-11T22:23:14.879Z,7.33
2018-07-11T22:25:42.964Z,7.60
2018-07-11T22:28:10.982Z,8.37
2018-07-11T22:30:38.968Z,7.93
2018-07-11T22:33:07.024Z,8.27
2018-07-11T22:35:35.282Z,7.57
2018-07-11T22:38:03.336Z,7.77
2018-07-11T22:40:31.354Z,7.70
2018-07-11T22:42:59.345Z,7.53
2018-07-11T22:45:27.373Z,8.30
2018-07-11T22:47:55.580Z,8.47
2018-07-11T22:50:23.740Z,9.37
2018-07-11T22:52:51.747Z,7.73
2018-07-11T22:55:19.819Z,8.20
2018-07-11T22:57:47.892Z,8.90
2018-07-11T23:00:15.954Z,8.50
2018-07-11T23:02:43.954Z,8.73
2018-07-11T23:05:11.977Z,8.70
2018-07-11T23:07:39.969Z,8.60
2018-07-11T23:10:07.986Z,8.90
2018-07-11T23:12:35.984Z,8.23
2018-07-11T23:15:04.019Z,8.23
2018-07-11T23:17:32.016Z,9.53
2018-07-11T23:20:00.037Z,8.10
2018-07-11T23:22:28.046Z,8.93
2018-07-11T23:24:56.090Z,9.17
2018-07-11T23:27:24.098Z,8.73
2018-07-11T23:29:52.118Z,9.40
2018-07-11T23:32:20.140Z,9.13
2018-07-11T23:34:48.157Z,8.47
2018-07-11T23:37:16.149Z,8.60
2018-07-11T23:39:44.189Z,8.37
2018-07-11T23:42:12.188Z,8.23
2018-07-11T23:44:40.184Z,7.87
2018-07-11T23:47:08.202Z,8.20
2018-07-11T23:49:36.224Z,7.80
2018-07-11T23:52:04.244Z,8.67
2018-07-11T23:54:32.241Z,8.53
2018-07-11T23:57:00.264Z,8.60
2018-07-11T23:59:28.270Z,9.73
